Tongeren, Belgium
Current Conditions -  °F | °C
As of 11:20 AM on Sunday 25 Jan 2015 (Local Time) from EBLG Reporting Station
Haze Haze  
Wind Chill: 28°   Ceiling: 1200
Heat Index: 34°   Visibility: 3mi
Dew Point: 32°   Wind: 7mph
Humidity: 93%   Direction: 230°SW
Pressure: 30.42"   Gusts: NA
Location:  50.78°N, 5.46°E
Report Text: EBLG 251020Z 23006KT 4800 BR BKN012 01/M00 Q1030 R23/120195 NOSIG
Loading
Personal Weather Stations






























Interactive Weather Map New forecast layout! Learn more

10-Day Weather Forecast

Advertisements
Track Severe Weather on mobile